sensor_id;sensor_type;location;lat;lon;timestamp;P1;durP1;ratioP1;P2;durP2;ratioP2
9914;SDS011;4996;48.746;9.174;2022-07-23T00:00:28;5.90;;;4.90;;
9914;SDS011;4996;48.746;9.174;2022-07-23T00:02:53;5.17;;;4.50;;
9914;SDS011;4996;48.746;9.174;2022-07-23T00:05:19;5.77;;;5.10;;
9914;SDS011;4996;48.746;9.174;2022-07-23T00:07:44;5.00;;;4.47;;
9914;SDS011;4996;48.746;9.174;2022-07-23T00:10:10;5.53;;;4.77;;
9914;SDS011;4996;48.746;9.174;2022-07-23T00:12:36;5.53;;;4.57;;
9914;SDS011;4996;48.746;9.174;2022-07-23T00:15:03;4.73;;;4.23;;
9914;SDS011;4996;48.746;9.174;2022-07-23T00:17:30;4.90;;;4.50;;
9914;SDS011;4996;48.746;9.174;2022-07-23T00:19:55;5.83;;;5.03;;
9914;SDS011;4996;48.746;9.174;2022-07-23T00:22:21;5.03;;;4.53;;
9914;SDS011;4996;48.746;9.174;2022-07-23T00:24:47;5.00;;;3.80;;
9914;SDS011;4996;48.746;9.174;2022-07-23T00:27:12;6.17;;;3.87;;
9914;SDS011;4996;48.746;9.174;2022-07-23T00:29:38;4.20;;;3.80;;
9914;SDS011;4996;48.746;9.174;2022-07-23T00:32:03;3.87;;;3.53;;
9914;SDS011;4996;48.746;9.174;2022-07-23T00:34:29;3.77;;;3.27;;
9914;SDS011;4996;48.746;9.174;2022-07-23T00:36:55;4.73;;;4.23;;
9914;SDS011;4996;48.746;9.174;2022-07-23T00:39:21;4.37;;;3.97;;
9914;SDS011;4996;48.746;9.174;2022-07-23T00:41:47;6.20;;;3.80;;
9914;SDS011;4996;48.746;9.174;2022-07-23T00:44:20;4.90;;;3.47;;
9914;SDS011;4996;48.746;9.174;2022-07-23T00:46:49;4.20;;;3.80;;
9914;SDS011;4996;48.746;9.174;2022-07-23T00:49:19;4.03;;;3.73;;
9914;SDS011;4996;48.746;9.174;2022-07-23T00:51:45;6.27;;;4.40;;
9914;SDS011;4996;48.746;9.174;2022-07-23T00:54:11;5.13;;;4.20;;
9914;SDS011;4996;48.746;9.174;2022-07-23T00:56:37;6.17;;;4.27;;
9914;SDS011;4996;48.746;9.174;2022-07-23T00:59:05;4.97;;;4.23;;
9914;SDS011;4996;48.746;9.174;2022-07-23T01:01:31;4.63;;;4.13;;
9914;SDS011;4996;48.746;9.174;2022-07-23T01:03:57;6.30;;;5.13;;
9914;SDS011;4996;48.746;9.174;2022-07-23T01:06:22;5.30;;;4.10;;
9914;SDS011;4996;48.746;9.174;2022-07-23T01:08:48;4.40;;;4.00;;
9914;SDS011;4996;48.746;9.174;2022-07-23T01:11:13;4.30;;;3.90;;
9914;SDS011;4996;48.746;9.174;2022-07-23T01:13:42;4.07;;;3.67;;
9914;SDS011;4996;48.746;9.174;2022-07-23T01:16:08;6.30;;;4.70;;
9914;SDS011;4996;48.746;9.174;2022-07-23T01:18:34;4.80;;;3.97;;
9914;SDS011;4996;48.746;9.174;2022-07-23T01:20:59;4.70;;;3.97;;
9914;SDS011;4996;48.746;9.174;2022-07-23T01:23:25;3.97;;;3.43;;
9914;SDS011;4996;48.746;9.174;2022-07-23T01:25:54;4.60;;;4.13;;
9914;SDS011;4996;48.746;9.174;2022-07-23T01:28:20;4.90;;;4.30;;
9914;SDS011;4996;48.746;9.174;2022-07-23T01:30:46;4.73;;;3.63;;
9914;SDS011;4996;48.746;9.174;2022-07-23T01:33:12;4.43;;;3.90;;
9914;SDS011;4996;48.746;9.174;2022-07-23T01:35:38;8.20;;;3.80;;
9914;SDS011;4996;48.746;9.174;2022-07-23T01:38:03;4.27;;;3.87;;
9914;SDS011;4996;48.746;9.174;2022-07-23T01:40:29;5.80;;;4.53;;
9914;SDS011;4996;48.746;9.174;2022-07-23T01:42:55;5.57;;;4.07;;
9914;SDS011;4996;48.746;9.174;2022-07-23T01:45:20;6.00;;;3.83;;
9914;SDS011;4996;48.746;9.174;2022-07-23T01:47:46;5.60;;;3.80;;
9914;SDS011;4996;48.746;9.174;2022-07-23T01:50:12;4.70;;;3.83;;
9914;SDS011;4996;48.746;9.174;2022-07-23T01:52:38;6.43;;;4.40;;
9914;SDS011;4996;48.746;9.174;2022-07-23T01:55:04;3.87;;;3.57;;
9914;SDS011;4996;48.746;9.174;2022-07-23T01:57:30;4.27;;;3.43;;
9914;SDS011;4996;48.746;9.174;2022-07-23T01:59:56;4.37;;;3.43;;
9914;SDS011;4996;48.746;9.174;2022-07-23T02:02:22;4.20;;;3.80;;
9914;SDS011;4996;48.746;9.174;2022-07-23T02:04:47;4.03;;;3.63;;
9914;SDS011;4996;48.746;9.174;2022-07-23T02:07:13;4.57;;;4.20;;
9914;SDS011;4996;48.746;9.174;2022-07-23T02:09:38;5.10;;;4.07;;
9914;SDS011;4996;48.746;9.174;2022-07-23T02:12:04;4.57;;;4.17;;
9914;SDS011;4996;48.746;9.174;2022-07-23T02:14:30;4.70;;;4.30;;
9914;SDS011;4996;48.746;9.174;2022-07-23T02:16:55;6.47;;;4.83;;
9914;SDS011;4996;48.746;9.174;2022-07-23T02:19:21;5.53;;;4.10;;
9914;SDS011;4996;48.746;9.174;2022-07-23T02:21:47;4.77;;;3.80;;
9914;SDS011;4996;48.746;9.174;2022-07-23T02:24:12;4.47;;;4.07;;
9914;SDS011;4996;48.746;9.174;2022-07-23T02:26:38;4.90;;;3.90;;
9914;SDS011;4996;48.746;9.174;2022-07-23T02:29:04;7.53;;;3.90;;
9914;SDS011;4996;48.746;9.174;2022-07-23T02:31:30;4.40;;;4.00;;
9914;SDS011;4996;48.746;9.174;2022-07-23T02:33:56;7.23;;;4.77;;
9914;SDS011;4996;48.746;9.174;2022-07-23T02:36:21;4.67;;;4.20;;
9914;SDS011;4996;48.746;9.174;2022-07-23T02:38:47;4.33;;;4.00;;
9914;SDS011;4996;48.746;9.174;2022-07-23T02:41:13;4.77;;;4.30;;
9914;SDS011;4996;48.746;9.174;2022-07-23T02:43:39;4.40;;;4.00;;
9914;SDS011;4996;48.746;9.174;2022-07-23T02:46:04;4.30;;;3.90;;
9914;SDS011;4996;48.746;9.174;2022-07-23T02:48:30;5.37;;;3.73;;
9914;SDS011;4996;48.746;9.174;2022-07-23T02:50:55;4.63;;;4.20;;
9914;SDS011;4996;48.746;9.174;2022-07-23T02:53:21;4.67;;;4.27;;
9914;SDS011;4996;48.746;9.174;2022-07-23T02:55:48;4.80;;;3.50;;
9914;SDS011;4996;48.746;9.174;2022-07-23T02:58:14;5.23;;;4.33;;
9914;SDS011;4996;48.746;9.174;2022-07-23T03:00:39;6.20;;;4.20;;
9914;SDS011;4996;48.746;9.174;2022-07-23T03:03:05;5.03;;;4.10;;
9914;SDS011;4996;48.746;9.174;2022-07-23T03:05:32;6.97;;;4.00;;
9914;SDS011;4996;48.746;9.174;2022-07-23T03:07:58;4.97;;;4.30;;
9914;SDS011;4996;48.746;9.174;2022-07-23T03:10:23;7.43;;;4.77;;
9914;SDS011;4996;48.746;9.174;2022-07-23T03:12:49;4.23;;;3.83;;
9914;SDS011;4996;48.746;9.174;2022-07-23T03:15:14;5.60;;;4.93;;
9914;SDS011;4996;48.746;9.174;2022-07-23T03:17:40;4.90;;;4.50;;
9914;SDS011;4996;48.746;9.174;2022-07-23T03:20:06;6.80;;;4.37;;
9914;SDS011;4996;48.746;9.174;2022-07-23T03:22:32;8.00;;;4.63;;
9914;SDS011;4996;48.746;9.174;2022-07-23T03:24:57;6.30;;;4.70;;
9914;SDS011;4996;48.746;9.174;2022-07-23T03:27:23;5.33;;;3.90;;
9914;SDS011;4996;48.746;9.174;2022-07-23T03:29:51;5.00;;;4.37;;
9914;SDS011;4996;48.746;9.174;2022-07-23T03:32:18;5.53;;;4.57;;
9914;SDS011;4996;48.746;9.174;2022-07-23T03:34:44;4.97;;;4.47;;
9914;SDS011;4996;48.746;9.174;2022-07-23T03:37:09;4.90;;;4.40;;
9914;SDS011;4996;48.746;9.174;2022-07-23T03:39:35;4.83;;;4.33;;
9914;SDS011;4996;48.746;9.174;2022-07-23T03:42:01;5.33;;;4.50;;
9914;SDS011;4996;48.746;9.174;2022-07-23T03:44:27;5.07;;;4.57;;
9914;SDS011;4996;48.746;9.174;2022-07-23T03:46:52;5.53;;;5.03;;
9914;SDS011;4996;48.746;9.174;2022-07-23T03:49:18;4.17;;;3.80;;
9914;SDS011;4996;48.746;9.174;2022-07-23T03:51:43;5.70;;;4.57;;
9914;SDS011;4996;48.746;9.174;2022-07-23T03:54:09;5.43;;;4.43;;
9914;SDS011;4996;48.746;9.174;2022-07-23T03:56:35;4.30;;;3.90;;
9914;SDS011;4996;48.746;9.174;2022-07-23T03:59:00;6.20;;;4.40;;
9914;SDS011;4996;48.746;9.174;2022-07-23T04:01:26;5.10;;;4.60;;
9914;SDS011;4996;48.746;9.174;2022-07-23T04:03:51;5.00;;;4.53;;
9914;SDS011;4996;48.746;9.174;2022-07-23T04:06:17;5.23;;;4.73;;
9914;SDS011;4996;48.746;9.174;2022-07-23T04:08:43;4.60;;;4.20;;
9914;SDS011;4996;48.746;9.174;2022-07-23T04:11:08;5.13;;;4.63;;
9914;SDS011;4996;48.746;9.174;2022-07-23T04:13:34;6.27;;;4.77;;
9914;SDS011;4996;48.746;9.174;2022-07-23T04:15:59;5.87;;;5.10;;
9914;SDS011;4996;48.746;9.174;2022-07-23T04:18:25;5.87;;;4.30;;
9914;SDS011;4996;48.746;9.174;2022-07-23T04:20:51;5.93;;;5.03;;
9914;SDS011;4996;48.746;9.174;2022-07-23T04:23:17;5.70;;;4.80;;
9914;SDS011;4996;48.746;9.174;2022-07-23T04:25:42;6.03;;;5.43;;
9914;SDS011;4996;48.746;9.174;2022-07-23T04:28:08;5.63;;;4.60;;
9914;SDS011;4996;48.746;9.174;2022-07-23T04:30:34;4.90;;;4.23;;
9914;SDS011;4996;48.746;9.174;2022-07-23T04:32:59;4.80;;;4.33;;
9914;SDS011;4996;48.746;9.174;2022-07-23T04:35:25;5.80;;;5.20;;
9914;SDS011;4996;48.746;9.174;2022-07-23T04:37:51;7.53;;;4.33;;
9914;SDS011;4996;48.746;9.174;2022-07-23T04:40:16;5.40;;;5.00;;
9914;SDS011;4996;48.746;9.174;2022-07-23T04:42:42;8.07;;;4.70;;
9914;SDS011;4996;48.746;9.174;2022-07-23T04:45:07;7.10;;;4.97;;
9914;SDS011;4996;48.746;9.174;2022-07-23T04:47:33;4.70;;;4.20;;
9914;SDS011;4996;48.746;9.174;2022-07-23T04:49:59;5.73;;;5.20;;
9914;SDS011;4996;48.746;9.174;2022-07-23T04:52:24;5.57;;;4.80;;
9914;SDS011;4996;48.746;9.174;2022-07-23T04:54:50;6.83;;;4.73;;
9914;SDS011;4996;48.746;9.174;2022-07-23T04:57:15;4.70;;;4.30;;
9914;SDS011;4996;48.746;9.174;2022-07-23T04:59:41;5.20;;;4.70;;
9914;SDS011;4996;48.746;9.174;2022-07-23T05:02:06;5.90;;;5.30;;
9914;SDS011;4996;48.746;9.174;2022-07-23T05:04:32;8.87;;;4.63;;
9914;SDS011;4996;48.746;9.174;2022-07-23T05:06:58;5.00;;;4.60;;
9914;SDS011;4996;48.746;9.174;2022-07-23T05:09:24;5.70;;;5.13;;
9914;SDS011;4996;48.746;9.174;2022-07-23T05:11:50;6.57;;;4.93;;
9914;SDS011;4996;48.746;9.174;2022-07-23T05:14:15;4.70;;;4.30;;
9914;SDS011;4996;48.746;9.174;2022-07-23T05:16:41;5.17;;;4.70;;
9914;SDS011;4996;48.746;9.174;2022-07-23T05:19:07;5.33;;;4.83;;
9914;SDS011;4996;48.746;9.174;2022-07-23T05:21:32;5.20;;;4.70;;
9914;SDS011;4996;48.746;9.174;2022-07-23T05:23:58;4.97;;;4.47;;
9914;SDS011;4996;48.746;9.174;2022-07-23T05:26:24;4.60;;;4.10;;
9914;SDS011;4996;48.746;9.174;2022-07-23T05:28:50;5.07;;;4.53;;
9914;SDS011;4996;48.746;9.174;2022-07-23T05:31:15;5.77;;;5.20;;
9914;SDS011;4996;48.746;9.174;2022-07-23T05:33:41;5.73;;;4.80;;
9914;SDS011;4996;48.746;9.174;2022-07-23T05:36:07;5.73;;;5.10;;
9914;SDS011;4996;48.746;9.174;2022-07-23T05:38:32;4.70;;;4.30;;
9914;SDS011;4996;48.746;9.174;2022-07-23T05:40:58;5.67;;;5.17;;
9914;SDS011;4996;48.746;9.174;2022-07-23T05:43:24;5.73;;;5.23;;
9914;SDS011;4996;48.746;9.174;2022-07-23T05:45:50;6.40;;;5.00;;
9914;SDS011;4996;48.746;9.174;2022-07-23T05:48:15;5.50;;;4.90;;
9914;SDS011;4996;48.746;9.174;2022-07-23T05:50:41;5.70;;;5.10;;
9914;SDS011;4996;48.746;9.174;2022-07-23T05:53:06;5.60;;;5.10;;
9914;SDS011;4996;48.746;9.174;2022-07-23T05:55:32;7.87;;;5.40;;
9914;SDS011;4996;48.746;9.174;2022-07-23T05:57:58;6.90;;;6.20;;
9914;SDS011;4996;48.746;9.174;2022-07-23T06:00:24;5.20;;;4.80;;
9914;SDS011;4996;48.746;9.174;2022-07-23T06:02:50;5.30;;;4.67;;
9914;SDS011;4996;48.746;9.174;2022-07-23T06:05:17;6.50;;;4.90;;
9914;SDS011;4996;48.746;9.174;2022-07-23T06:07:42;6.43;;;5.80;;
9914;SDS011;4996;48.746;9.174;2022-07-23T06:10:08;6.90;;;5.40;;
9914;SDS011;4996;48.746;9.174;2022-07-23T06:12:34;7.10;;;5.70;;
9914;SDS011;4996;48.746;9.174;2022-07-23T06:15:00;6.00;;;5.40;;
9914;SDS011;4996;48.746;9.174;2022-07-23T06:17:25;6.13;;;5.53;;
9914;SDS011;4996;48.746;9.174;2022-07-23T06:19:52;5.93;;;5.10;;
9914;SDS011;4996;48.746;9.174;2022-07-23T06:22:17;5.80;;;5.30;;
9914;SDS011;4996;48.746;9.174;2022-07-23T06:24:43;6.73;;;5.60;;
9914;SDS011;4996;48.746;9.174;2022-07-23T06:27:09;6.00;;;5.40;;
9914;SDS011;4996;48.746;9.174;2022-07-23T06:29:34;6.07;;;5.47;;
9914;SDS011;4996;48.746;9.174;2022-07-23T06:32:00;6.40;;;5.37;;
9914;SDS011;4996;48.746;9.174;2022-07-23T06:34:25;7.87;;;5.50;;
9914;SDS011;4996;48.746;9.174;2022-07-23T06:36:51;5.90;;;5.40;;
9914;SDS011;4996;48.746;9.174;2022-07-23T06:39:16;5.60;;;5.07;;
9914;SDS011;4996;48.746;9.174;2022-07-23T06:41:42;6.13;;;5.47;;
9914;SDS011;4996;48.746;9.174;2022-07-23T06:44:07;7.87;;;5.43;;
9914;SDS011;4996;48.746;9.174;2022-07-23T06:46:33;6.00;;;5.40;;
9914;SDS011;4996;48.746;9.174;2022-07-23T06:48:58;7.53;;;5.17;;
9914;SDS011;4996;48.746;9.174;2022-07-23T06:51:24;5.40;;;4.90;;
9914;SDS011;4996;48.746;9.174;2022-07-23T06:53:49;7.40;;;5.53;;
9914;SDS011;4996;48.746;9.174;2022-07-23T06:56:15;5.90;;;5.40;;
9914;SDS011;4996;48.746;9.174;2022-07-23T06:58:40;7.07;;;6.00;;
9914;SDS011;4996;48.746;9.174;2022-07-23T07:01:06;7.40;;;6.20;;
9914;SDS011;4996;48.746;9.174;2022-07-23T07:03:32;10.10;;;6.40;;
9914;SDS011;4996;48.746;9.174;2022-07-23T07:05:57;6.33;;;5.73;;
9914;SDS011;4996;48.746;9.174;2022-07-23T07:08:23;6.10;;;5.60;;
9914;SDS011;4996;48.746;9.174;2022-07-23T07:10:49;6.20;;;4.97;;
9914;SDS011;4996;48.746;9.174;2022-07-23T07:13:15;5.60;;;5.10;;
9914;SDS011;4996;48.746;9.174;2022-07-23T07:15:40;8.03;;;6.13;;
9914;SDS011;4996;48.746;9.174;2022-07-23T07:18:06;6.57;;;5.90;;
9914;SDS011;4996;48.746;9.174;2022-07-23T07:20:32;8.30;;;5.20;;
9914;SDS011;4996;48.746;9.174;2022-07-23T07:22:58;15.80;;;5.60;;
9914;SDS011;4996;48.746;9.174;2022-07-23T07:25:23;6.13;;;5.57;;
9914;SDS011;4996;48.746;9.174;2022-07-23T07:27:49;6.57;;;5.63;;
9914;SDS011;4996;48.746;9.174;2022-07-23T07:30:14;4.40;;;4.10;;
9914;SDS011;4996;48.746;9.174;2022-07-23T07:32:40;5.83;;;5.23;;
9914;SDS011;4996;48.746;9.174;2022-07-23T07:35:06;7.30;;;5.90;;
9914;SDS011;4996;48.746;9.174;2022-07-23T07:37:32;6.20;;;4.80;;
9914;SDS011;4996;48.746;9.174;2022-07-23T07:39:58;5.60;;;5.10;;
9914;SDS011;4996;48.746;9.174;2022-07-23T07:42:23;5.83;;;5.23;;
9914;SDS011;4996;48.746;9.174;2022-07-23T07:44:49;5.33;;;4.77;;
9914;SDS011;4996;48.746;9.174;2022-07-23T07:47:14;6.70;;;5.80;;
9914;SDS011;4996;48.746;9.174;2022-07-23T07:49:40;6.43;;;5.50;;
9914;SDS011;4996;48.746;9.174;2022-07-23T07:52:07;7.73;;;5.83;;
9914;SDS011;4996;48.746;9.174;2022-07-23T07:54:32;6.97;;;6.10;;
9914;SDS011;4996;48.746;9.174;2022-07-23T07:56:58;7.80;;;6.00;;
9914;SDS011;4996;48.746;9.174;2022-07-23T07:59:23;6.93;;;6.20;;
9914;SDS011;4996;48.746;9.174;2022-07-23T08:01:49;7.00;;;6.23;;
9914;SDS011;4996;48.746;9.174;2022-07-23T08:04:14;7.87;;;6.63;;
9914;SDS011;4996;48.746;9.174;2022-07-23T08:06:40;6.47;;;5.40;;
9914;SDS011;4996;48.746;9.174;2022-07-23T08:09:06;5.83;;;5.23;;
9914;SDS011;4996;48.746;9.174;2022-07-23T08:11:31;6.17;;;5.60;;
9914;SDS011;4996;48.746;9.174;2022-07-23T08:13:57;7.23;;;5.43;;
9914;SDS011;4996;48.746;9.174;2022-07-23T08:16:22;6.10;;;5.40;;
9914;SDS011;4996;48.746;9.174;2022-07-23T08:18:48;7.80;;;6.03;;
9914;SDS011;4996;48.746;9.174;2022-07-23T08:21:13;5.67;;;5.17;;
9914;SDS011;4996;48.746;9.174;2022-07-23T08:23:39;6.47;;;5.37;;
9914;SDS011;4996;48.746;9.174;2022-07-23T08:26:04;9.30;;;6.17;;
9914;SDS011;4996;48.746;9.174;2022-07-23T08:28:30;6.97;;;5.53;;
9914;SDS011;4996;48.746;9.174;2022-07-23T08:30:59;6.30;;;5.37;;
9914;SDS011;4996;48.746;9.174;2022-07-23T08:33:25;5.60;;;5.07;;
9914;SDS011;4996;48.746;9.174;2022-07-23T08:35:51;5.73;;;5.20;;
9914;SDS011;4996;48.746;9.174;2022-07-23T08:38:18;6.50;;;5.90;;
9914;SDS011;4996;48.746;9.174;2022-07-23T08:40:46;5.93;;;5.30;;
9914;SDS011;4996;48.746;9.174;2022-07-23T08:43:15;7.20;;;5.37;;
9914;SDS011;4996;48.746;9.174;2022-07-23T08:45:43;6.37;;;5.80;;
9914;SDS011;4996;48.746;9.174;2022-07-23T08:48:13;7.67;;;5.40;;
9914;SDS011;4996;48.746;9.174;2022-07-23T08:50:48;6.27;;;5.20;;
9914;SDS011;4996;48.746;9.174;2022-07-23T08:53:16;7.03;;;4.80;;
9914;SDS011;4996;48.746;9.174;2022-07-23T08:55:43;5.83;;;5.20;;
9914;SDS011;4996;48.746;9.174;2022-07-23T08:58:10;6.00;;;5.23;;
9914;SDS011;4996;48.746;9.174;2022-07-23T09:00:36;5.33;;;4.83;;
9914;SDS011;4996;48.746;9.174;2022-07-23T09:03:02;5.80;;;5.30;;
9914;SDS011;4996;48.746;9.174;2022-07-23T09:05:28;5.80;;;5.20;;
9914;SDS011;4996;48.746;9.174;2022-07-23T09:08:04;5.23;;;4.73;;
9914;SDS011;4996;48.746;9.174;2022-07-23T09:10:29;5.53;;;5.00;;
9914;SDS011;4996;48.746;9.174;2022-07-23T09:12:56;6.40;;;5.50;;
9914;SDS011;4996;48.746;9.174;2022-07-23T09:15:21;4.90;;;4.50;;
9914;SDS011;4996;48.746;9.174;2022-07-23T09:17:47;7.10;;;4.93;;
9914;SDS011;4996;48.746;9.174;2022-07-23T09:20:14;7.50;;;4.80;;
9914;SDS011;4996;48.746;9.174;2022-07-23T09:22:44;5.87;;;4.70;;
9914;SDS011;4996;48.746;9.174;2022-07-23T09:25:15;6.10;;;5.10;;
9914;SDS011;4996;48.746;9.174;2022-07-23T09:27:56;5.87;;;5.27;;
9914;SDS011;4996;48.746;9.174;2022-07-23T09:30:23;5.63;;;5.00;;
9914;SDS011;4996;48.746;9.174;2022-07-23T09:33:08;5.60;;;5.10;;
9914;SDS011;4996;48.746;9.174;2022-07-23T09:38:17;5.27;;;4.77;;
9914;SDS011;4996;48.746;9.174;2022-07-23T09:40:43;5.83;;;5.13;;
9914;SDS011;4996;48.746;9.174;2022-07-23T09:43:10;4.87;;;4.37;;
9914;SDS011;4996;48.746;9.174;2022-07-23T09:45:36;5.10;;;4.30;;
9914;SDS011;4996;48.746;9.174;2022-07-23T09:48:10;5.03;;;4.53;;
9914;SDS011;4996;48.746;9.174;2022-07-23T09:50:44;5.17;;;4.67;;
9914;SDS011;4996;48.746;9.174;2022-07-23T09:53:10;5.50;;;4.70;;
9914;SDS011;4996;48.746;9.174;2022-07-23T09:55:51;4.87;;;4.23;;
9914;SDS011;4996;48.746;9.174;2022-07-23T09:58:20;5.33;;;4.83;;
9914;SDS011;4996;48.746;9.174;2022-07-23T10:00:47;5.43;;;4.97;;
9914;SDS011;4996;48.746;9.174;2022-07-23T10:03:14;4.90;;;4.50;;
9914;SDS011;4996;48.746;9.174;2022-07-23T10:05:40;4.53;;;4.23;;
9914;SDS011;4996;48.746;9.174;2022-07-23T10:08:08;5.43;;;4.93;;
9914;SDS011;4996;48.746;9.174;2022-07-23T10:10:37;5.63;;;5.03;;
9914;SDS011;4996;48.746;9.174;2022-07-23T10:13:04;5.93;;;4.87;;
9914;SDS011;4996;48.746;9.174;2022-07-23T10:15:49;5.90;;;5.27;;
9914;SDS011;4996;48.746;9.174;2022-07-23T10:18:15;6.40;;;5.17;;
9914;SDS011;4996;48.746;9.174;2022-07-23T10:20:41;6.23;;;5.73;;
9914;SDS011;4996;48.746;9.174;2022-07-23T10:23:24;5.80;;;5.30;;
9914;SDS011;4996;48.746;9.174;2022-07-23T10:26:04;5.43;;;5.00;;
9914;SDS011;4996;48.746;9.174;2022-07-23T10:34:44;5.77;;;5.27;;
9914;SDS011;4996;48.746;9.174;2022-07-23T10:37:39;5.57;;;5.07;;
9914;SDS011;4996;48.746;9.174;2022-07-23T10:42:40;13.83;;;6.40;;
9914;SDS011;4996;48.746;9.174;2022-07-23T10:47:52;5.57;;;5.07;;
9914;SDS011;4996;48.746;9.174;2022-07-23T10:53:07;5.27;;;4.83;;
9914;SDS011;4996;48.746;9.174;2022-07-23T10:58:00;4.97;;;4.57;;
9914;SDS011;4996;48.746;9.174;2022-07-23T11:00:30;4.77;;;4.37;;
9914;SDS011;4996;48.746;9.174;2022-07-23T11:03:01;6.40;;;5.00;;
9914;SDS011;4996;48.746;9.174;2022-07-23T11:08:17;4.50;;;4.10;;
9914;SDS011;4996;48.746;9.174;2022-07-23T11:10:46;5.37;;;4.87;;
9914;SDS011;4996;48.746;9.174;2022-07-23T11:16:20;5.70;;;5.20;;
9914;SDS011;4996;48.746;9.174;2022-07-23T11:18:53;5.37;;;4.90;;
9914;SDS011;4996;48.746;9.174;2022-07-23T11:24:05;6.20;;;5.03;;
9914;SDS011;4996;48.746;9.174;2022-07-23T11:32:05;5.93;;;5.30;;
9914;SDS011;4996;48.746;9.174;2022-07-23T11:34:49;5.60;;;5.20;;
9914;SDS011;4996;48.746;9.174;2022-07-23T11:40:19;5.17;;;4.77;;
9914;SDS011;4996;48.746;9.174;2022-07-23T11:42:56;7.23;;;5.67;;
9914;SDS011;4996;48.746;9.174;2022-07-23T11:45:24;6.03;;;5.30;;
9914;SDS011;4996;48.746;9.174;2022-07-23T11:47:56;6.17;;;5.67;;
9914;SDS011;4996;48.746;9.174;2022-07-23T11:50:23;5.90;;;5.37;;
9914;SDS011;4996;48.746;9.174;2022-07-23T11:52:50;6.97;;;5.97;;
9914;SDS011;4996;48.746;9.174;2022-07-23T11:55:16;5.53;;;5.03;;
9914;SDS011;4996;48.746;9.174;2022-07-23T11:57:42;5.67;;;5.17;;
9914;SDS011;4996;48.746;9.174;2022-07-23T12:00:13;6.30;;;5.33;;
9914;SDS011;4996;48.746;9.174;2022-07-23T12:02:48;6.57;;;5.97;;
9914;SDS011;4996;48.746;9.174;2022-07-23T12:05:20;7.00;;;5.33;;
9914;SDS011;4996;48.746;9.174;2022-07-23T12:07:56;6.90;;;5.33;;
9914;SDS011;4996;48.746;9.174;2022-07-23T12:10:26;6.43;;;5.23;;
9914;SDS011;4996;48.746;9.174;2022-07-23T12:12:57;7.30;;;5.60;;
9914;SDS011;4996;48.746;9.174;2022-07-23T12:15:26;6.03;;;5.33;;
9914;SDS011;4996;48.746;9.174;2022-07-23T12:17:55;5.93;;;5.33;;
9914;SDS011;4996;48.746;9.174;2022-07-23T12:20:22;5.77;;;5.27;;
9914;SDS011;4996;48.746;9.174;2022-07-23T12:22:51;6.40;;;5.83;;
9914;SDS011;4996;48.746;9.174;2022-07-23T12:25:21;5.60;;;5.10;;
9914;SDS011;4996;48.746;9.174;2022-07-23T12:28:05;6.30;;;5.70;;
9914;SDS011;4996;48.746;9.174;2022-07-23T12:30:39;6.10;;;5.60;;
9914;SDS011;4996;48.746;9.174;2022-07-23T12:33:23;6.23;;;5.63;;
9914;SDS011;4996;48.746;9.174;2022-07-23T12:36:00;7.10;;;6.17;;
9914;SDS011;4996;48.746;9.174;2022-07-23T12:38:35;7.13;;;6.40;;
9914;SDS011;4996;48.746;9.174;2022-07-23T12:41:07;6.70;;;6.20;;
9914;SDS011;4996;48.746;9.174;2022-07-23T12:43:35;6.33;;;5.60;;
9914;SDS011;4996;48.746;9.174;2022-07-23T12:46:09;5.80;;;5.30;;
9914;SDS011;4996;48.746;9.174;2022-07-23T12:53:50;5.90;;;5.40;;
9914;SDS011;4996;48.746;9.174;2022-07-23T12:56:26;6.13;;;5.53;;
9914;SDS011;4996;48.746;9.174;2022-07-23T12:59:04;6.13;;;5.53;;
9914;SDS011;4996;48.746;9.174;2022-07-23T13:01:36;8.40;;;5.50;;
9914;SDS011;4996;48.746;9.174;2022-07-23T13:04:07;7.13;;;5.80;;
9914;SDS011;4996;48.746;9.174;2022-07-23T13:06:36;7.43;;;5.40;;
9914;SDS011;4996;48.746;9.174;2022-07-23T13:09:11;6.50;;;6.00;;
9914;SDS011;4996;48.746;9.174;2022-07-23T13:11:38;5.60;;;5.20;;
9914;SDS011;4996;48.746;9.174;2022-07-23T13:14:04;5.70;;;5.20;;
9914;SDS011;4996;48.746;9.174;2022-07-23T13:16:31;6.73;;;6.13;;
9914;SDS011;4996;48.746;9.174;2022-07-23T13:18:57;4.90;;;4.50;;
9914;SDS011;4996;48.746;9.174;2022-07-23T13:21:23;6.17;;;5.57;;
9914;SDS011;4996;48.746;9.174;2022-07-23T13:23:49;6.10;;;5.40;;
9914;SDS011;4996;48.746;9.174;2022-07-23T13:26:15;6.87;;;5.83;;
9914;SDS011;4996;48.746;9.174;2022-07-23T13:28:41;5.10;;;4.63;;
9914;SDS011;4996;48.746;9.174;2022-07-23T13:31:07;6.87;;;5.87;;
9914;SDS011;4996;48.746;9.174;2022-07-23T13:33:33;5.30;;;4.90;;
9914;SDS011;4996;48.746;9.174;2022-07-23T13:35:59;5.87;;;5.23;;
9914;SDS011;4996;48.746;9.174;2022-07-23T13:38:24;6.40;;;5.80;;
9914;SDS011;4996;48.746;9.174;2022-07-23T13:40:50;6.30;;;5.70;;
9914;SDS011;4996;48.746;9.174;2022-07-23T13:43:18;7.40;;;5.60;;
9914;SDS011;4996;48.746;9.174;2022-07-23T13:45:45;5.70;;;5.20;;
9914;SDS011;4996;48.746;9.174;2022-07-23T13:48:11;5.63;;;5.20;;
9914;SDS011;4996;48.746;9.174;2022-07-23T13:50:38;6.63;;;5.90;;
9914;SDS011;4996;48.746;9.174;2022-07-23T13:53:05;6.23;;;5.73;;
9914;SDS011;4996;48.746;9.174;2022-07-23T13:55:34;7.23;;;6.53;;
9914;SDS011;4996;48.746;9.174;2022-07-23T13:58:00;6.43;;;5.83;;
9914;SDS011;4996;48.746;9.174;2022-07-23T14:00:26;6.80;;;6.10;;
9914;SDS011;4996;48.746;9.174;2022-07-23T14:02:53;7.10;;;6.40;;
9914;SDS011;4996;48.746;9.174;2022-07-23T14:05:19;6.53;;;5.93;;
9914;SDS011;4996;48.746;9.174;2022-07-23T14:07:45;9.53;;;5.70;;
9914;SDS011;4996;48.746;9.174;2022-07-23T14:10:14;6.20;;;5.70;;
9914;SDS011;4996;48.746;9.174;2022-07-23T14:12:41;6.80;;;6.17;;
9914;SDS011;4996;48.746;9.174;2022-07-23T14:15:06;7.47;;;5.50;;
9914;SDS011;4996;48.746;9.174;2022-07-23T14:17:33;6.50;;;5.90;;
9914;SDS011;4996;48.746;9.174;2022-07-23T14:20:01;6.93;;;6.33;;
9914;SDS011;4996;48.746;9.174;2022-07-23T14:22:27;6.47;;;5.80;;
9914;SDS011;4996;48.746;9.174;2022-07-23T14:24:53;5.70;;;5.20;;
9914;SDS011;4996;48.746;9.174;2022-07-23T14:27:18;6.80;;;6.20;;
9914;SDS011;4996;48.746;9.174;2022-07-23T14:29:44;6.90;;;6.27;;
9914;SDS011;4996;48.746;9.174;2022-07-23T14:32:09;6.17;;;5.57;;
9914;SDS011;4996;48.746;9.174;2022-07-23T14:34:35;6.53;;;6.03;;
9914;SDS011;4996;48.746;9.174;2022-07-23T14:37:00;8.13;;;6.37;;
9914;SDS011;4996;48.746;9.174;2022-07-23T14:39:26;6.90;;;6.30;;
9914;SDS011;4996;48.746;9.174;2022-07-23T14:41:52;6.30;;;5.80;;
9914;SDS011;4996;48.746;9.174;2022-07-23T14:44:18;5.53;;;5.03;;
9914;SDS011;4996;48.746;9.174;2022-07-23T14:46:43;7.00;;;6.37;;
9914;SDS011;4996;48.746;9.174;2022-07-23T14:49:09;7.00;;;6.40;;
9914;SDS011;4996;48.746;9.174;2022-07-23T14:51:35;6.13;;;5.63;;
9914;SDS011;4996;48.746;9.174;2022-07-23T14:54:01;8.97;;;5.70;;
9914;SDS011;4996;48.746;9.174;2022-07-23T14:56:27;6.80;;;6.03;;
9914;SDS011;4996;48.746;9.174;2022-07-23T14:58:53;7.00;;;5.90;;
9914;SDS011;4996;48.746;9.174;2022-07-23T15:01:20;6.70;;;6.00;;
9914;SDS011;4996;48.746;9.174;2022-07-23T15:03:47;6.53;;;5.87;;
9914;SDS011;4996;48.746;9.174;2022-07-23T15:06:12;6.00;;;5.50;;
9914;SDS011;4996;48.746;9.174;2022-07-23T15:08:38;7.33;;;5.80;;
9914;SDS011;4996;48.746;9.174;2022-07-23T15:11:04;5.57;;;5.10;;
9914;SDS011;4996;48.746;9.174;2022-07-23T15:13:30;6.50;;;5.83;;
9914;SDS011;4996;48.746;9.174;2022-07-23T15:15:55;7.13;;;6.43;;
9914;SDS011;4996;48.746;9.174;2022-07-23T15:18:21;6.53;;;6.03;;
9914;SDS011;4996;48.746;9.174;2022-07-23T15:20:46;6.70;;;6.10;;
9914;SDS011;4996;48.746;9.174;2022-07-23T15:23:12;7.23;;;6.53;;
9914;SDS011;4996;48.746;9.174;2022-07-23T15:25:38;6.37;;;5.80;;
9914;SDS011;4996;48.746;9.174;2022-07-23T15:28:04;8.13;;;6.27;;
9914;SDS011;4996;48.746;9.174;2022-07-23T15:30:29;5.77;;;5.23;;
9914;SDS011;4996;48.746;9.174;2022-07-23T15:32:55;8.83;;;6.73;;
9914;SDS011;4996;48.746;9.174;2022-07-23T15:35:22;6.30;;;5.70;;
9914;SDS011;4996;48.746;9.174;2022-07-23T15:37:48;7.67;;;6.77;;
9914;SDS011;4996;48.746;9.174;2022-07-23T15:40:13;6.77;;;5.43;;
9914;SDS011;4996;48.746;9.174;2022-07-23T15:42:39;6.63;;;6.07;;
9914;SDS011;4996;48.746;9.174;2022-07-23T15:45:05;6.97;;;6.37;;
9914;SDS011;4996;48.746;9.174;2022-07-23T15:47:31;7.53;;;6.77;;
9914;SDS011;4996;48.746;9.174;2022-07-23T15:49:56;8.77;;;6.77;;
9914;SDS011;4996;48.746;9.174;2022-07-23T15:52:22;7.43;;;6.47;;
9914;SDS011;4996;48.746;9.174;2022-07-23T15:54:47;7.80;;;7.20;;